sensor_id;sensor_type;location;lat;lon;timestamp;P1;durP1;ratioP1;P2;durP2;ratioP2
6031;SDS011;3044;43.232;27.972;2023-01-04T00:02:22;28.47;;;17.57;;
6031;SDS011;3044;43.232;27.972;2023-01-04T00:04:50;28.13;;;18.47;;
6031;SDS011;3044;43.232;27.972;2023-01-04T00:07:17;22.03;;;16.67;;
6031;SDS011;3044;43.232;27.972;2023-01-04T00:09:44;21.23;;;16.83;;
6031;SDS011;3044;43.232;27.972;2023-01-04T00:12:11;26.00;;;18.60;;
6031;SDS011;3044;43.232;27.972;2023-01-04T00:14:38;25.67;;;16.80;;
6031;SDS011;3044;43.232;27.972;2023-01-04T00:17:05;21.73;;;16.27;;
6031;SDS011;3044;43.232;27.972;2023-01-04T00:19:34;36.60;;;16.43;;
6031;SDS011;3044;43.232;27.972;2023-01-04T00:22:01;23.70;;;17.33;;
6031;SDS011;3044;43.232;27.972;2023-01-04T00:24:28;25.23;;;16.97;;
6031;SDS011;3044;43.232;27.972;2023-01-04T00:26:55;23.10;;;16.37;;
6031;SDS011;3044;43.232;27.972;2023-01-04T00:29:22;25.33;;;18.83;;
6031;SDS011;3044;43.232;27.972;2023-01-04T00:31:50;25.97;;;18.30;;
6031;SDS011;3044;43.232;27.972;2023-01-04T00:34:17;24.63;;;16.40;;
6031;SDS011;3044;43.232;27.972;2023-01-04T00:36:46;24.40;;;18.10;;
6031;SDS011;3044;43.232;27.972;2023-01-04T00:39:13;26.93;;;19.60;;
6031;SDS011;3044;43.232;27.972;2023-01-04T00:41:43;27.47;;;18.27;;
6031;SDS011;3044;43.232;27.972;2023-01-04T00:44:11;30.17;;;19.53;;
6031;SDS011;3044;43.232;27.972;2023-01-04T00:46:39;37.23;;;21.67;;
6031;SDS011;3044;43.232;27.972;2023-01-04T00:49:07;26.63;;;18.13;;
6031;SDS011;3044;43.232;27.972;2023-01-04T00:51:36;29.33;;;20.27;;
6031;SDS011;3044;43.232;27.972;2023-01-04T00:54:07;26.23;;;18.30;;
6031;SDS011;3044;43.232;27.972;2023-01-04T00:56:38;27.30;;;18.90;;
6031;SDS011;3044;43.232;27.972;2023-01-04T00:59:05;32.80;;;20.83;;
6031;SDS011;3044;43.232;27.972;2023-01-04T01:01:32;26.03;;;19.43;;
6031;SDS011;3044;43.232;27.972;2023-01-04T01:04:02;32.67;;;20.67;;
6031;SDS011;3044;43.232;27.972;2023-01-04T01:06:30;29.90;;;20.50;;
6031;SDS011;3044;43.232;27.972;2023-01-04T01:08:59;29.10;;;19.40;;
6031;SDS011;3044;43.232;27.972;2023-01-04T01:11:28;30.20;;;21.60;;
6031;SDS011;3044;43.232;27.972;2023-01-04T01:13:56;32.40;;;22.20;;
6031;SDS011;3044;43.232;27.972;2023-01-04T01:16:24;34.13;;;20.70;;
6031;SDS011;3044;43.232;27.972;2023-01-04T01:18:52;28.73;;;21.87;;
6031;SDS011;3044;43.232;27.972;2023-01-04T01:21:20;28.07;;;20.83;;
6031;SDS011;3044;43.232;27.972;2023-01-04T01:23:49;32.97;;;22.13;;
6031;SDS011;3044;43.232;27.972;2023-01-04T01:26:17;34.40;;;23.67;;
6031;SDS011;3044;43.232;27.972;2023-01-04T01:28:47;33.10;;;23.20;;
6031;SDS011;3044;43.232;27.972;2023-01-04T01:31:15;29.77;;;20.83;;
6031;SDS011;3044;43.232;27.972;2023-01-04T01:33:45;34.13;;;22.37;;
6031;SDS011;3044;43.232;27.972;2023-01-04T01:36:13;31.90;;;20.83;;
6031;SDS011;3044;43.232;27.972;2023-01-04T01:38:41;34.20;;;21.93;;
6031;SDS011;3044;43.232;27.972;2023-01-04T01:41:13;33.70;;;23.87;;
6031;SDS011;3044;43.232;27.972;2023-01-04T01:43:45;33.70;;;22.57;;
6031;SDS011;3044;43.232;27.972;2023-01-04T01:46:20;37.83;;;23.40;;
6031;SDS011;3044;43.232;27.972;2023-01-04T01:48:50;29.87;;;21.77;;
6031;SDS011;3044;43.232;27.972;2023-01-04T01:51:20;36.07;;;23.10;;
6031;SDS011;3044;43.232;27.972;2023-01-04T01:53:48;35.33;;;22.73;;
6031;SDS011;3044;43.232;27.972;2023-01-04T01:56:20;31.17;;;22.40;;
6031;SDS011;3044;43.232;27.972;2023-01-04T01:58:49;31.90;;;21.73;;
6031;SDS011;3044;43.232;27.972;2023-01-04T02:01:19;35.63;;;23.07;;
6031;SDS011;3044;43.232;27.972;2023-01-04T02:03:48;35.50;;;23.20;;
6031;SDS011;3044;43.232;27.972;2023-01-04T02:06:17;37.13;;;23.77;;
6031;SDS011;3044;43.232;27.972;2023-01-04T02:08:46;39.60;;;24.37;;
6031;SDS011;3044;43.232;27.972;2023-01-04T02:11:14;35.70;;;23.73;;
6031;SDS011;3044;43.232;27.972;2023-01-04T02:13:42;35.07;;;22.97;;
6031;SDS011;3044;43.232;27.972;2023-01-04T02:16:32;33.47;;;22.40;;
6031;SDS011;3044;43.232;27.972;2023-01-04T02:19:28;33.80;;;22.97;;
6031;SDS011;3044;43.232;27.972;2023-01-04T02:25:19;32.53;;;21.77;;
6031;SDS011;3044;43.232;27.972;2023-01-04T02:28:04;32.00;;;21.63;;
6031;SDS011;3044;43.232;27.972;2023-01-04T02:30:54;34.60;;;21.97;;
6031;SDS011;3044;43.232;27.972;2023-01-04T02:33:43;32.30;;;21.83;;
6031;SDS011;3044;43.232;27.972;2023-01-04T02:36:18;33.20;;;22.10;;
6031;SDS011;3044;43.232;27.972;2023-01-04T02:38:57;35.07;;;21.07;;
6031;SDS011;3044;43.232;27.972;2023-01-04T02:41:32;34.23;;;22.10;;
6031;SDS011;3044;43.232;27.972;2023-01-04T02:44:04;33.07;;;21.80;;
6031;SDS011;3044;43.232;27.972;2023-01-04T02:46:52;31.23;;;20.77;;
6031;SDS011;3044;43.232;27.972;2023-01-04T02:49:25;30.43;;;20.47;;
6031;SDS011;3044;43.232;27.972;2023-01-04T02:52:10;32.90;;;20.63;;
6031;SDS011;3044;43.232;27.972;2023-01-04T02:54:38;26.63;;;19.40;;
6031;SDS011;3044;43.232;27.972;2023-01-04T02:57:18;31.50;;;21.03;;
6031;SDS011;3044;43.232;27.972;2023-01-04T03:00:06;42.53;;;21.13;;
6031;SDS011;3044;43.232;27.972;2023-01-04T03:02:51;37.40;;;19.53;;
6031;SDS011;3044;43.232;27.972;2023-01-04T03:05:48;31.00;;;20.10;;
6031;SDS011;3044;43.232;27.972;2023-01-04T03:08:42;30.03;;;19.00;;
6031;SDS011;3044;43.232;27.972;2023-01-04T03:11:20;27.83;;;19.53;;
6031;SDS011;3044;43.232;27.972;2023-01-04T03:14:06;30.77;;;20.70;;
6031;SDS011;3044;43.232;27.972;2023-01-04T03:16:37;31.23;;;20.37;;
6031;SDS011;3044;43.232;27.972;2023-01-04T03:19:09;31.50;;;19.73;;
6031;SDS011;3044;43.232;27.972;2023-01-04T03:21:41;33.20;;;19.80;;
6031;SDS011;3044;43.232;27.972;2023-01-04T03:24:10;32.50;;;21.13;;
6031;SDS011;3044;43.232;27.972;2023-01-04T03:26:58;31.50;;;20.93;;
6031;SDS011;3044;43.232;27.972;2023-01-04T03:29:47;30.20;;;21.10;;
6031;SDS011;3044;43.232;27.972;2023-01-04T03:32:39;26.30;;;18.47;;
6031;SDS011;3044;43.232;27.972;2023-01-04T03:35:32;28.67;;;19.53;;
6031;SDS011;3044;43.232;27.972;2023-01-04T03:38:08;27.03;;;19.07;;
6031;SDS011;3044;43.232;27.972;2023-01-04T03:41:00;30.30;;;20.23;;
6031;SDS011;3044;43.232;27.972;2023-01-04T03:43:50;28.70;;;18.73;;
6031;SDS011;3044;43.232;27.972;2023-01-04T03:46:40;29.83;;;19.97;;
6031;SDS011;3044;43.232;27.972;2023-01-04T03:49:32;29.93;;;19.10;;
6031;SDS011;3044;43.232;27.972;2023-01-04T03:52:07;33.07;;;21.00;;
6031;SDS011;3044;43.232;27.972;2023-01-04T03:54:36;28.93;;;20.27;;
6031;SDS011;3044;43.232;27.972;2023-01-04T03:57:06;30.20;;;19.60;;
6031;SDS011;3044;43.232;27.972;2023-01-04T03:59:38;33.30;;;19.40;;
6031;SDS011;3044;43.232;27.972;2023-01-04T04:02:09;28.63;;;18.90;;
6031;SDS011;3044;43.232;27.972;2023-01-04T04:04:38;29.50;;;19.40;;
6031;SDS011;3044;43.232;27.972;2023-01-04T04:07:24;28.20;;;19.57;;
6031;SDS011;3044;43.232;27.972;2023-01-04T04:10:09;29.40;;;18.33;;
6031;SDS011;3044;43.232;27.972;2023-01-04T04:12:36;28.73;;;18.80;;
6031;SDS011;3044;43.232;27.972;2023-01-04T04:15:04;32.73;;;17.73;;
6031;SDS011;3044;43.232;27.972;2023-01-04T04:17:31;28.73;;;19.20;;
6031;SDS011;3044;43.232;27.972;2023-01-04T04:19:58;27.03;;;19.53;;
6031;SDS011;3044;43.232;27.972;2023-01-04T04:22:27;33.10;;;20.10;;
6031;SDS011;3044;43.232;27.972;2023-01-04T04:24:54;32.60;;;17.60;;
6031;SDS011;3044;43.232;27.972;2023-01-04T04:27:21;32.93;;;19.30;;
6031;SDS011;3044;43.232;27.972;2023-01-04T04:29:48;27.87;;;19.90;;
6031;SDS011;3044;43.232;27.972;2023-01-04T04:32:15;31.30;;;19.20;;
6031;SDS011;3044;43.232;27.972;2023-01-04T04:34:42;30.47;;;17.50;;
6031;SDS011;3044;43.232;27.972;2023-01-04T04:37:09;28.27;;;18.80;;
6031;SDS011;3044;43.232;27.972;2023-01-04T04:39:38;34.30;;;20.07;;
6031;SDS011;3044;43.232;27.972;2023-01-04T04:42:05;28.93;;;18.57;;
6031;SDS011;3044;43.232;27.972;2023-01-04T04:44:32;34.23;;;17.80;;
6031;SDS011;3044;43.232;27.972;2023-01-04T04:47:00;30.60;;;20.70;;
6031;SDS011;3044;43.232;27.972;2023-01-04T04:49:27;30.67;;;20.37;;
6031;SDS011;3044;43.232;27.972;2023-01-04T04:51:55;28.50;;;17.80;;
6031;SDS011;3044;43.232;27.972;2023-01-04T04:54:22;26.13;;;18.90;;
6031;SDS011;3044;43.232;27.972;2023-01-04T04:56:50;26.97;;;18.30;;
6031;SDS011;3044;43.232;27.972;2023-01-04T04:59:17;23.10;;;16.90;;
6031;SDS011;3044;43.232;27.972;2023-01-04T05:01:44;24.93;;;17.30;;
6031;SDS011;3044;43.232;27.972;2023-01-04T05:04:12;24.50;;;16.80;;
6031;SDS011;3044;43.232;27.972;2023-01-04T05:06:40;29.13;;;18.07;;
6031;SDS011;3044;43.232;27.972;2023-01-04T05:09:09;22.60;;;17.20;;
6031;SDS011;3044;43.232;27.972;2023-01-04T05:11:36;25.57;;;16.97;;
6031;SDS011;3044;43.232;27.972;2023-01-04T05:14:22;28.70;;;17.53;;
6031;SDS011;3044;43.232;27.972;2023-01-04T05:16:49;30.90;;;17.10;;
6031;SDS011;3044;43.232;27.972;2023-01-04T05:19:16;23.23;;;16.97;;
6031;SDS011;3044;43.232;27.972;2023-01-04T05:21:44;28.27;;;16.37;;
6031;SDS011;3044;43.232;27.972;2023-01-04T05:24:11;39.50;;;18.73;;
6031;SDS011;3044;43.232;27.972;2023-01-04T05:26:39;23.83;;;15.53;;
6031;SDS011;3044;43.232;27.972;2023-01-04T05:29:06;24.90;;;16.60;;
6031;SDS011;3044;43.232;27.972;2023-01-04T05:31:55;23.83;;;16.67;;
6031;SDS011;3044;43.232;27.972;2023-01-04T05:34:21;22.20;;;15.20;;
6031;SDS011;3044;43.232;27.972;2023-01-04T05:36:48;21.60;;;16.13;;
6031;SDS011;3044;43.232;27.972;2023-01-04T05:39:15;23.20;;;16.40;;
6031;SDS011;3044;43.232;27.972;2023-01-04T05:41:42;23.87;;;16.27;;
6031;SDS011;3044;43.232;27.972;2023-01-04T05:44:27;25.83;;;16.20;;
6031;SDS011;3044;43.232;27.972;2023-01-04T05:46:55;20.70;;;15.33;;
6031;SDS011;3044;43.232;27.972;2023-01-04T05:49:23;28.13;;;16.50;;
6031;SDS011;3044;43.232;27.972;2023-01-04T05:51:51;22.20;;;16.10;;
6031;SDS011;3044;43.232;27.972;2023-01-04T05:54:18;23.27;;;15.70;;
6031;SDS011;3044;43.232;27.972;2023-01-04T05:56:45;37.23;;;18.17;;
6031;SDS011;3044;43.232;27.972;2023-01-04T05:59:12;19.97;;;15.13;;
6031;SDS011;3044;43.232;27.972;2023-01-04T06:01:40;21.23;;;15.47;;
6031;SDS011;3044;43.232;27.972;2023-01-04T06:04:08;24.93;;;15.33;;
6031;SDS011;3044;43.232;27.972;2023-01-04T06:06:35;21.30;;;14.87;;
6031;SDS011;3044;43.232;27.972;2023-01-04T06:09:03;23.37;;;14.87;;
6031;SDS011;3044;43.232;27.972;2023-01-04T06:11:30;26.70;;;15.80;;
6031;SDS011;3044;43.232;27.972;2023-01-04T06:13:57;23.43;;;17.03;;
6031;SDS011;3044;43.232;27.972;2023-01-04T06:16:24;23.90;;;15.73;;
6031;SDS011;3044;43.232;27.972;2023-01-04T06:18:51;23.83;;;16.03;;
6031;SDS011;3044;43.232;27.972;2023-01-04T06:21:19;21.27;;;13.50;;
6031;SDS011;3044;43.232;27.972;2023-01-04T06:23:46;25.10;;;16.17;;
6031;SDS011;3044;43.232;27.972;2023-01-04T06:26:14;23.60;;;15.03;;
6031;SDS011;3044;43.232;27.972;2023-01-04T06:28:41;21.53;;;15.40;;
6031;SDS011;3044;43.232;27.972;2023-01-04T06:31:08;23.67;;;14.73;;
6031;SDS011;3044;43.232;27.972;2023-01-04T06:33:37;22.20;;;15.20;;
6031;SDS011;3044;43.232;27.972;2023-01-04T06:36:05;21.43;;;15.37;;
6031;SDS011;3044;43.232;27.972;2023-01-04T06:38:34;18.73;;;13.97;;
6031;SDS011;3044;43.232;27.972;2023-01-04T06:41:01;19.97;;;15.07;;
6031;SDS011;3044;43.232;27.972;2023-01-04T06:43:28;21.90;;;14.20;;
6031;SDS011;3044;43.232;27.972;2023-01-04T06:45:55;22.10;;;14.07;;
6031;SDS011;3044;43.232;27.972;2023-01-04T06:48:24;18.37;;;13.33;;
6031;SDS011;3044;43.232;27.972;2023-01-04T06:50:51;23.17;;;14.50;;
6031;SDS011;3044;43.232;27.972;2023-01-04T06:53:18;21.97;;;14.50;;
6031;SDS011;3044;43.232;27.972;2023-01-04T06:55:47;20.17;;;14.40;;
6031;SDS011;3044;43.232;27.972;2023-01-04T06:58:14;21.10;;;13.83;;
6031;SDS011;3044;43.232;27.972;2023-01-04T07:00:41;20.93;;;13.67;;
6031;SDS011;3044;43.232;27.972;2023-01-04T07:03:10;18.37;;;14.23;;
6031;SDS011;3044;43.232;27.972;2023-01-04T07:05:37;24.17;;;14.27;;
6031;SDS011;3044;43.232;27.972;2023-01-04T07:08:05;25.40;;;13.73;;
6031;SDS011;3044;43.232;27.972;2023-01-04T07:10:32;17.10;;;13.73;;
6031;SDS011;3044;43.232;27.972;2023-01-04T07:13:00;27.97;;;13.97;;
6031;SDS011;3044;43.232;27.972;2023-01-04T07:15:28;17.03;;;12.60;;
6031;SDS011;3044;43.232;27.972;2023-01-04T07:17:55;19.97;;;12.30;;
6031;SDS011;3044;43.232;27.972;2023-01-04T07:20:22;16.93;;;13.67;;
6031;SDS011;3044;43.232;27.972;2023-01-04T07:22:49;21.03;;;12.30;;
6031;SDS011;3044;43.232;27.972;2023-01-04T07:25:16;18.33;;;12.40;;
6031;SDS011;3044;43.232;27.972;2023-01-04T07:27:44;20.40;;;13.53;;
6031;SDS011;3044;43.232;27.972;2023-01-04T07:30:17;18.07;;;12.87;;
6031;SDS011;3044;43.232;27.972;2023-01-04T07:32:45;22.67;;;12.40;;
6031;SDS011;3044;43.232;27.972;2023-01-04T07:35:12;17.50;;;13.00;;
6031;SDS011;3044;43.232;27.972;2023-01-04T07:37:40;26.33;;;12.53;;
6031;SDS011;3044;43.232;27.972;2023-01-04T07:40:08;22.40;;;13.40;;
6031;SDS011;3044;43.232;27.972;2023-01-04T07:42:36;18.03;;;13.00;;
6031;SDS011;3044;43.232;27.972;2023-01-04T07:45:04;18.43;;;13.40;;
6031;SDS011;3044;43.232;27.972;2023-01-04T07:47:34;18.40;;;13.07;;
6031;SDS011;3044;43.232;27.972;2023-01-04T07:50:01;19.93;;;12.93;;
6031;SDS011;3044;43.232;27.972;2023-01-04T07:52:28;22.57;;;12.77;;
6031;SDS011;3044;43.232;27.972;2023-01-04T07:54:56;21.40;;;13.07;;
6031;SDS011;3044;43.232;27.972;2023-01-04T07:57:23;14.97;;;12.53;;
6031;SDS011;3044;43.232;27.972;2023-01-04T07:59:50;27.37;;;13.90;;
6031;SDS011;3044;43.232;27.972;2023-01-04T08:02:17;23.43;;;13.70;;
6031;SDS011;3044;43.232;27.972;2023-01-04T08:04:46;19.83;;;12.20;;
6031;SDS011;3044;43.232;27.972;2023-01-04T08:07:13;16.03;;;12.90;;
6031;SDS011;3044;43.232;27.972;2023-01-04T08:09:40;18.23;;;12.93;;
6031;SDS011;3044;43.232;27.972;2023-01-04T08:12:07;19.27;;;13.13;;
6031;SDS011;3044;43.232;27.972;2023-01-04T08:14:34;17.87;;;13.03;;
6031;SDS011;3044;43.232;27.972;2023-01-04T08:17:01;21.03;;;12.37;;
6031;SDS011;3044;43.232;27.972;2023-01-04T08:19:28;18.03;;;12.43;;
6031;SDS011;3044;43.232;27.972;2023-01-04T08:21:57;19.03;;;13.67;;
6031;SDS011;3044;43.232;27.972;2023-01-04T08:24:24;18.10;;;12.10;;
6031;SDS011;3044;43.232;27.972;2023-01-04T08:26:51;18.43;;;13.30;;
6031;SDS011;3044;43.232;27.972;2023-01-04T08:29:18;24.30;;;13.73;;
6031;SDS011;3044;43.232;27.972;2023-01-04T08:31:45;16.60;;;12.43;;
6031;SDS011;3044;43.232;27.972;2023-01-04T08:34:12;19.73;;;13.07;;
6031;SDS011;3044;43.232;27.972;2023-01-04T08:36:44;22.90;;;13.97;;
6031;SDS011;3044;43.232;27.972;2023-01-04T08:39:14;21.70;;;13.60;;
6031;SDS011;3044;43.232;27.972;2023-01-04T08:41:41;19.43;;;12.33;;
6031;SDS011;3044;43.232;27.972;2023-01-04T08:44:18;17.83;;;12.83;;
6031;SDS011;3044;43.232;27.972;2023-01-04T08:46:46;17.50;;;12.70;;
6031;SDS011;3044;43.232;27.972;2023-01-04T08:49:13;17.37;;;12.20;;
6031;SDS011;3044;43.232;27.972;2023-01-04T08:51:40;23.77;;;12.57;;
6031;SDS011;3044;43.232;27.972;2023-01-04T08:54:08;17.10;;;12.37;;
6031;SDS011;3044;43.232;27.972;2023-01-04T08:56:37;18.77;;;11.97;;
6031;SDS011;3044;43.232;27.972;2023-01-04T08:59:05;20.53;;;13.90;;
6031;SDS011;3044;43.232;27.972;2023-01-04T09:01:33;15.40;;;12.40;;
6031;SDS011;3044;43.232;27.972;2023-01-04T09:04:01;17.27;;;12.70;;
6031;SDS011;3044;43.232;27.972;2023-01-04T09:06:28;17.13;;;11.80;;
6031;SDS011;3044;43.232;27.972;2023-01-04T09:08:56;17.03;;;12.07;;
6031;SDS011;3044;43.232;27.972;2023-01-04T09:11:23;15.13;;;11.40;;
6031;SDS011;3044;43.232;27.972;2023-01-04T09:13:54;14.10;;;11.40;;
6031;SDS011;3044;43.232;27.972;2023-01-04T09:16:23;17.60;;;12.13;;
6031;SDS011;3044;43.232;27.972;2023-01-04T09:18:50;13.90;;;11.30;;
6031;SDS011;3044;43.232;27.972;2023-01-04T09:21:18;19.73;;;11.53;;
6031;SDS011;3044;43.232;27.972;2023-01-04T09:23:46;16.10;;;11.67;;
6031;SDS011;3044;43.232;27.972;2023-01-04T09:26:14;23.57;;;12.03;;
6031;SDS011;3044;43.232;27.972;2023-01-04T09:28:43;16.57;;;11.70;;
6031;SDS011;3044;43.232;27.972;2023-01-04T09:31:12;16.00;;;12.40;;
6031;SDS011;3044;43.232;27.972;2023-01-04T09:33:41;15.73;;;11.50;;
6031;SDS011;3044;43.232;27.972;2023-01-04T09:36:10;18.83;;;11.23;;
6031;SDS011;3044;43.232;27.972;2023-01-04T09:38:39;15.43;;;12.00;;
6031;SDS011;3044;43.232;27.972;2023-01-04T09:41:09;21.70;;;11.53;;
6031;SDS011;3044;43.232;27.972;2023-01-04T09:43:43;18.07;;;12.67;;
6031;SDS011;3044;43.232;27.972;2023-01-04T09:46:16;18.57;;;12.40;;
6031;SDS011;3044;43.232;27.972;2023-01-04T09:48:50;17.47;;;11.87;;
6031;SDS011;3044;43.232;27.972;2023-01-04T09:51:22;16.17;;;12.23;;
6031;SDS011;3044;43.232;27.972;2023-01-04T09:53:54;17.93;;;12.90;;
6031;SDS011;3044;43.232;27.972;2023-01-04T09:56:27;16.77;;;11.97;;
6031;SDS011;3044;43.232;27.972;2023-01-04T09:58:57;20.10;;;13.03;;
6031;SDS011;3044;43.232;27.972;2023-01-04T10:01:31;17.23;;;11.87;;
6031;SDS011;3044;43.232;27.972;2023-01-04T10:04:06;15.43;;;11.13;;
6031;SDS011;3044;43.232;27.972;2023-01-04T10:06:43;14.27;;;11.13;;
6031;SDS011;3044;43.232;27.972;2023-01-04T10:09:11;15.73;;;10.37;;
6031;SDS011;3044;43.232;27.972;2023-01-04T10:17:27;19.63;;;12.33;;
6031;SDS011;3044;43.232;27.972;2023-01-04T10:20:19;19.57;;;11.80;;
6031;SDS011;3044;43.232;27.972;2023-01-04T10:23:05;15.33;;;11.23;;
6031;SDS011;3044;43.232;27.972;2023-01-04T10:25:42;15.07;;;11.00;;
6031;SDS011;3044;43.232;27.972;2023-01-04T10:28:18;18.40;;;11.70;;
6031;SDS011;3044;43.232;27.972;2023-01-04T10:30:58;17.33;;;11.77;;
6031;SDS011;3044;43.232;27.972;2023-01-04T10:33:35;10.50;;;9.10;;
6031;SDS011;3044;43.232;27.972;2023-01-04T10:36:12;22.77;;;11.23;;
6031;SDS011;3044;43.232;27.972;2023-01-04T10:38:44;20.47;;;10.33;;
6031;SDS011;3044;43.232;27.972;2023-01-04T10:41:12;14.90;;;10.30;;
6031;SDS011;3044;43.232;27.972;2023-01-04T10:43:55;15.93;;;9.60;;
6031;SDS011;3044;43.232;27.972;2023-01-04T10:46:32;14.20;;;9.33;;
6031;SDS011;3044;43.232;27.972;2023-01-04T10:49:08;14.13;;;10.00;;
6031;SDS011;3044;43.232;27.972;2023-01-04T10:51:42;22.40;;;10.30;;
6031;SDS011;3044;43.232;27.972;2023-01-04T10:54:19;27.13;;;11.20;;
6031;SDS011;3044;43.232;27.972;2023-01-04T10:56:54;12.17;;;9.93;;
6031;SDS011;3044;43.232;27.972;2023-01-04T10:59:27;13.67;;;9.70;;
6031;SDS011;3044;43.232;27.972;2023-01-04T11:02:04;13.93;;;9.53;;
6031;SDS011;3044;43.232;27.972;2023-01-04T11:04:38;14.90;;;9.63;;
6031;SDS011;3044;43.232;27.972;2023-01-04T11:07:11;25.57;;;9.03;;
6031;SDS011;3044;43.232;27.972;2023-01-04T11:09:45;11.90;;;8.93;;
6031;SDS011;3044;43.232;27.972;2023-01-04T11:12:18;17.53;;;9.77;;
6031;SDS011;3044;43.232;27.972;2023-01-04T11:14:48;10.17;;;8.20;;
6031;SDS011;3044;43.232;27.972;2023-01-04T11:17:16;12.60;;;8.63;;
6031;SDS011;3044;43.232;27.972;2023-01-04T11:19:46;12.70;;;8.27;;
6031;SDS011;3044;43.232;27.972;2023-01-04T11:22:14;12.73;;;10.10;;
6031;SDS011;3044;43.232;27.972;2023-01-04T11:24:46;18.00;;;10.87;;
6031;SDS011;3044;43.232;27.972;2023-01-04T11:27:18;17.07;;;9.80;;
6031;SDS011;3044;43.232;27.972;2023-01-04T11:29:50;15.10;;;9.87;;
6031;SDS011;3044;43.232;27.972;2023-01-04T11:32:23;17.00;;;9.90;;
6031;SDS011;3044;43.232;27.972;2023-01-04T11:35:01;16.43;;;9.43;;
6031;SDS011;3044;43.232;27.972;2023-01-04T11:37:29;13.30;;;9.70;;
6031;SDS011;3044;43.232;27.972;2023-01-04T11:40:18;13.73;;;9.00;;
6031;SDS011;3044;43.232;27.972;2023-01-04T11:42:48;21.83;;;10.90;;
6031;SDS011;3044;43.232;27.972;2023-01-04T11:45:22;14.63;;;9.57;;
6031;SDS011;3044;43.232;27.972;2023-01-04T11:47:51;17.50;;;10.70;;
6031;SDS011;3044;43.232;27.972;2023-01-04T11:50:34;13.77;;;10.23;;
6031;SDS011;3044;43.232;27.972;2023-01-04T11:53:22;14.57;;;10.63;;
6031;SDS011;3044;43.232;27.972;2023-01-04T11:55:51;19.50;;;11.50;;
6031;SDS011;3044;43.232;27.972;2023-01-04T11:58:34;17.73;;;9.77;;
6031;SDS011;3044;43.232;27.972;2023-01-04T12:01:02;13.20;;;9.97;;
6031;SDS011;3044;43.232;27.972;2023-01-04T12:03:30;14.37;;;9.77;;
6031;SDS011;3044;43.232;27.972;2023-01-04T12:06:03;12.47;;;9.47;;
6031;SDS011;3044;43.232;27.972;2023-01-04T12:08:38;13.37;;;10.50;;
6031;SDS011;3044;43.232;27.972;2023-01-04T12:11:09;19.73;;;11.00;;
6031;SDS011;3044;43.232;27.972;2023-01-04T12:13:53;19.00;;;10.40;;
6031;SDS011;3044;43.232;27.972;2023-01-04T12:16:21;14.83;;;10.17;;
6031;SDS011;3044;43.232;27.972;2023-01-04T12:18:59;13.93;;;10.07;;
6031;SDS011;3044;43.232;27.972;2023-01-04T12:21:30;16.83;;;11.37;;
6031;SDS011;3044;43.232;27.972;2023-01-04T12:24:00;17.50;;;10.43;;
6031;SDS011;3044;43.232;27.972;2023-01-04T12:26:31;17.23;;;10.13;;
6031;SDS011;3044;43.232;27.972;2023-01-04T12:44:58;16.40;;;10.57;;
6031;SDS011;3044;43.232;27.972;2023-01-04T12:47:49;17.40;;;10.67;;
6031;SDS011;3044;43.232;27.972;2023-01-04T12:53:51;12.87;;;10.40;;
6031;SDS011;3044;43.232;27.972;2023-01-04T12:56:22;18.87;;;11.00;;
6031;SDS011;3044;43.232;27.972;2023-01-04T13:01:33;13.73;;;10.10;;
6031;SDS011;3044;43.232;27.972;2023-01-04T13:04:02;20.50;;;10.67;;
6031;SDS011;3044;43.232;27.972;2023-01-04T13:06:53;19.00;;;10.63;;
6031;SDS011;3044;43.232;27.972;2023-01-04T13:09:25;12.43;;;9.60;;
6031;SDS011;3044;43.232;27.972;2023-01-04T13:12:05;18.20;;;11.23;;
6031;SDS011;3044;43.232;27.972;2023-01-04T13:14:42;14.03;;;10.63;;
6031;SDS011;3044;43.232;27.972;2023-01-04T13:17:14;23.33;;;10.10;;
6031;SDS011;3044;43.232;27.972;2023-01-04T13:19:43;24.33;;;12.10;;
6031;SDS011;3044;43.232;27.972;2023-01-04T13:22:15;17.07;;;11.17;;
6031;SDS011;3044;43.232;27.972;2023-01-04T13:24:45;11.57;;;8.90;;
6031;SDS011;3044;43.232;27.972;2023-01-04T13:27:16;15.00;;;9.07;;
6031;SDS011;3044;43.232;27.972;2023-01-04T13:29:46;15.03;;;9.70;;
6031;SDS011;3044;43.232;27.972;2023-01-04T13:32:16;21.57;;;10.20;;
6031;SDS011;3044;43.232;27.972;2023-01-04T13:34:49;17.27;;;10.13;;
6031;SDS011;3044;43.232;27.972;2023-01-04T13:37:28;15.47;;;10.27;;
6031;SDS011;3044;43.232;27.972;2023-01-04T13:43:16;15.47;;;9.50;;
6031;SDS011;3044;43.232;27.972;2023-01-04T13:45:58;11.63;;;9.10;;
6031;SDS011;3044;43.232;27.972;2023-01-04T13:48:39;13.10;;;8.93;;
6031;SDS011;3044;43.232;27.972;2023-01-04T13:51:12;13.27;;;9.10;;
6031;SDS011;3044;43.232;27.972;2023-01-04T13:53:41;12.20;;;9.17;;
6031;SDS011;3044;43.232;27.972;2023-01-04T13:56:18;14.77;;;10.13;;
6031;SDS011;3044;43.232;27.972;2023-01-04T13:58:48;12.50;;;9.50;;
6031;SDS011;3044;43.232;27.972;2023-01-04T14:01:16;14.93;;;10.47;;
6031;SDS011;3044;43.232;27.972;2023-01-04T14:03:48;15.93;;;10.63;;
6031;SDS011;3044;43.232;27.972;2023-01-04T14:06:21;15.20;;;10.13;;
6031;SDS011;3044;43.232;27.972;2023-01-04T14:08:57;11.97;;;9.17;;
6031;SDS011;3044;43.232;27.972;2023-01-04T14:11:27;14.23;;;9.63;;
6031;SDS011;3044;43.232;27.972;2023-01-04T14:14:16;14.87;;;10.33;;
6031;SDS011;3044;43.232;27.972;2023-01-04T14:16:48;15.50;;;9.90;;
6031;SDS011;3044;43.232;27.972;2023-01-04T14:19:26;12.00;;;9.63;;
6031;SDS011;3044;43.232;27.972;2023-01-04T14:22:17;28.03;;;9.60;;
6031;SDS011;3044;43.232;27.972;2023-01-04T14:28:18;13.07;;;9.37;;
6031;SDS011;3044;43.232;27.972;2023-01-04T14:30:54;18.60;;;10.60;;
6031;SDS011;3044;43.232;27.972;2023-01-04T14:33:38;12.93;;;9.40;;
6031;SDS011;3044;43.232;27.972;2023-01-04T14:36:10;13.33;;;8.83;;
6031;SDS011;3044;43.232;27.972;2023-01-04T14:38:41;15.33;;;10.30;;
6031;SDS011;3044;43.232;27.972;2023-01-04T14:41:11;17.83;;;10.77;;
6031;SDS011;3044;43.232;27.972;2023-01-04T14:43:46;17.83;;;9.30;;
6031;SDS011;3044;43.232;27.972;2023-01-04T14:46:16;23.10;;;10.37;;
6031;SDS011;3044;43.232;27.972;2023-01-04T14:48:43;17.30;;;10.53;;
6031;SDS011;3044;43.232;27.972;2023-01-04T14:51:10;15.07;;;9.83;;
6031;SDS011;3044;43.232;27.972;2023-01-04T14:53:41;21.80;;;10.00;;
6031;SDS011;3044;43.232;27.972;2023-01-04T14:56:10;17.93;;;11.87;;
6031;SDS011;3044;43.232;27.972;2023-01-04T14:58:38;18.33;;;10.70;;
6031;SDS011;3044;43.232;27.972;2023-01-04T15:01:06;17.77;;;10.70;;
6031;SDS011;3044;43.232;27.972;2023-01-04T15:03:35;16.30;;;10.67;;
6031;SDS011;3044;43.232;27.972;2023-01-04T15:06:02;32.77;;;13.30;;
6031;SDS011;3044;43.232;27.972;2023-01-04T15:08:30;18.60;;;11.93;;
6031;SDS011;3044;43.232;27.972;2023-01-04T15:10:57;15.77;;;11.23;;
6031;SDS011;3044;43.232;27.972;2023-01-04T15:13:25;19.43;;;12.97;;
6031;SDS011;3044;43.232;27.972;2023-01-04T15:15:52;19.80;;;12.23;;
6031;SDS011;3044;43.232;27.972;2023-01-04T15:18:19;24.90;;;15.13;;
6031;SDS011;3044;43.232;27.972;2023-01-04T15:20:48;22.87;;;14.37;;
6031;SDS011;3044;43.232;27.972;2023-01-04T15:23:15;21.27;;;13.70;;
6031;SDS011;3044;43.232;27.972;2023-01-04T15:25:42;20.30;;;13.23;;
6031;SDS011;3044;43.232;27.972;2023-01-04T15:28:10;17.07;;;12.43;;
6031;SDS011;3044;43.232;27.972;2023-01-04T15:30:39;19.80;;;12.83;;
6031;SDS011;3044;43.232;27.972;2023-01-04T15:33:07;21.53;;;14.70;;
6031;SDS011;3044;43.232;27.972;2023-01-04T15:35:34;26.87;;;14.17;;
6031;SDS011;3044;43.232;27.972;2023-01-04T15:38:03;18.00;;;14.37;;
6031;SDS011;3044;43.232;27.972;2023-01-04T15:40:30;18.57;;;12.60;;